sensor_id;sensor_type;location;lat;lon;timestamp;temperature;humidity
18597;DHT22;9428;50.950;6.912;2024-02-21T00:01:03;10.30;99.90
18597;DHT22;9428;50.950;6.912;2024-02-21T00:03:52;10.30;99.90
18597;DHT22;9428;50.950;6.912;2024-02-21T00:06:40;10.30;99.90
18597;DHT22;9428;50.950;6.912;2024-02-21T00:09:27;10.30;99.90
18597;DHT22;9428;50.950;6.912;2024-02-21T00:12:15;10.30;99.90
18597;DHT22;9428;50.950;6.912;2024-02-21T00:15:02;10.30;99.90
18597;DHT22;9428;50.950;6.912;2024-02-21T00:17:50;10.30;99.90
18597;DHT22;9428;50.950;6.912;2024-02-21T00:20:38;10.30;99.90
18597;DHT22;9428;50.950;6.912;2024-02-21T00:23:26;10.30;99.90
18597;DHT22;9428;50.950;6.912;2024-02-21T00:26:13;10.40;99.90
18597;DHT22;9428;50.950;6.912;2024-02-21T00:29:01;10.40;99.90
18597;DHT22;9428;50.950;6.912;2024-02-21T00:31:49;10.30;99.90
18597;DHT22;9428;50.950;6.912;2024-02-21T00:34:38;10.30;99.90
18597;DHT22;9428;50.950;6.912;2024-02-21T00:37:27;10.30;99.90
18597;DHT22;9428;50.950;6.912;2024-02-21T00:40:14;10.30;99.90
18597;DHT22;9428;50.950;6.912;2024-02-21T00:43:06;10.30;99.90
18597;DHT22;9428;50.950;6.912;2024-02-21T00:45:53;10.20;99.90
18597;DHT22;9428;50.950;6.912;2024-02-21T00:48:40;10.30;99.90
18597;DHT22;9428;50.950;6.912;2024-02-21T00:51:27;10.40;99.90
18597;DHT22;9428;50.950;6.912;2024-02-21T00:54:16;10.30;99.90
18597;DHT22;9428;50.950;6.912;2024-02-21T00:57:04;10.20;99.90
18597;DHT22;9428;50.950;6.912;2024-02-21T00:59:52;10.30;99.90
18597;DHT22;9428;50.950;6.912;2024-02-21T01:02:39;10.30;99.90
18597;DHT22;9428;50.950;6.912;2024-02-21T01:05:27;10.30;99.90
18597;DHT22;9428;50.950;6.912;2024-02-21T01:08:15;10.20;99.90
18597;DHT22;9428;50.950;6.912;2024-02-21T01:11:05;10.20;99.90
18597;DHT22;9428;50.950;6.912;2024-02-21T01:13:53;10.30;99.90
18597;DHT22;9428;50.950;6.912;2024-02-21T01:16:42;10.30;99.90
18597;DHT22;9428;50.950;6.912;2024-02-21T01:19:29;10.30;99.90
18597;DHT22;9428;50.950;6.912;2024-02-21T01:22:16;10.40;99.90
18597;DHT22;9428;50.950;6.912;2024-02-21T01:25:04;10.30;99.90
18597;DHT22;9428;50.950;6.912;2024-02-21T01:27:53;10.40;99.90
18597;DHT22;9428;50.950;6.912;2024-02-21T01:30:41;10.40;99.90
18597;DHT22;9428;50.950;6.912;2024-02-21T01:33:28;10.30;99.90
18597;DHT22;9428;50.950;6.912;2024-02-21T01:36:20;10.30;99.90
18597;DHT22;9428;50.950;6.912;2024-02-21T01:39:07;10.20;99.90
18597;DHT22;9428;50.950;6.912;2024-02-21T01:41:55;10.30;99.90
18597;DHT22;9428;50.950;6.912;2024-02-21T01:44:44;10.30;99.90
18597;DHT22;9428;50.950;6.912;2024-02-21T01:47:31;10.30;99.90
18597;DHT22;9428;50.950;6.912;2024-02-21T01:50:19;10.30;99.90
18597;DHT22;9428;50.950;6.912;2024-02-21T01:53:06;10.20;99.90
18597;DHT22;9428;50.950;6.912;2024-02-21T01:55:55;10.20;99.90
18597;DHT22;9428;50.950;6.912;2024-02-21T01:58:43;10.20;99.90
18597;DHT22;9428;50.950;6.912;2024-02-21T02:01:32;9.90;99.90
18597;DHT22;9428;50.950;6.912;2024-02-21T02:04:20;10.30;99.90
18597;DHT22;9428;50.950;6.912;2024-02-21T02:07:08;10.30;99.90
18597;DHT22;9428;50.950;6.912;2024-02-21T02:09:55;10.20;99.90
18597;DHT22;9428;50.950;6.912;2024-02-21T02:12:43;10.20;99.90
18597;DHT22;9428;50.950;6.912;2024-02-21T02:15:38;10.10;99.90
18597;DHT22;9428;50.950;6.912;2024-02-21T02:18:26;10.20;99.90
18597;DHT22;9428;50.950;6.912;2024-02-21T02:21:23;10.20;99.90
18597;DHT22;9428;50.950;6.912;2024-02-21T02:24:14;10.10;99.90
18597;DHT22;9428;50.950;6.912;2024-02-21T02:27:01;10.10;99.90
18597;DHT22;9428;50.950;6.912;2024-02-21T02:29:49;10.10;99.90
18597;DHT22;9428;50.950;6.912;2024-02-21T02:32:36;10.10;99.90
18597;DHT22;9428;50.950;6.912;2024-02-21T02:35:23;10.10;99.90
18597;DHT22;9428;50.950;6.912;2024-02-21T02:38:11;10.30;99.90
18597;DHT22;9428;50.950;6.912;2024-02-21T02:41:00;10.20;99.90
18597;DHT22;9428;50.950;6.912;2024-02-21T02:43:47;10.10;99.90
18597;DHT22;9428;50.950;6.912;2024-02-21T02:46:35;10.20;99.90
18597;DHT22;9428;50.950;6.912;2024-02-21T02:49:22;10.20;99.90
18597;DHT22;9428;50.950;6.912;2024-02-21T02:52:10;10.20;99.90
18597;DHT22;9428;50.950;6.912;2024-02-21T02:54:57;10.20;99.90
18597;DHT22;9428;50.950;6.912;2024-02-21T02:57:46;10.10;99.90
18597;DHT22;9428;50.950;6.912;2024-02-21T03:00:33;10.20;99.90
18597;DHT22;9428;50.950;6.912;2024-02-21T03:03:22;10.10;99.90
18597;DHT22;9428;50.950;6.912;2024-02-21T03:06:09;10.10;99.90
18597;DHT22;9428;50.950;6.912;2024-02-21T03:08:56;10.20;99.90
18597;DHT22;9428;50.950;6.912;2024-02-21T03:11:44;10.20;99.90
18597;DHT22;9428;50.950;6.912;2024-02-21T03:14:32;10.10;99.90
18597;DHT22;9428;50.950;6.912;2024-02-21T03:17:20;10.10;99.90
18597;DHT22;9428;50.950;6.912;2024-02-21T03:20:08;10.20;99.90
18597;DHT22;9428;50.950;6.912;2024-02-21T03:22:55;10.20;99.90
18597;DHT22;9428;50.950;6.912;2024-02-21T03:25:43;10.20;99.90
18597;DHT22;9428;50.950;6.912;2024-02-21T03:28:30;10.20;99.90
18597;DHT22;9428;50.950;6.912;2024-02-21T03:31:19;10.10;99.90
18597;DHT22;9428;50.950;6.912;2024-02-21T03:34:06;10.20;99.90
18597;DHT22;9428;50.950;6.912;2024-02-21T03:36:53;10.10;99.90
18597;DHT22;9428;50.950;6.912;2024-02-21T03:39:41;10.20;99.90
18597;DHT22;9428;50.950;6.912;2024-02-21T03:42:31;10.20;99.90
18597;DHT22;9428;50.950;6.912;2024-02-21T03:45:18;10.20;99.90
18597;DHT22;9428;50.950;6.912;2024-02-21T03:48:07;10.20;99.90
18597;DHT22;9428;50.950;6.912;2024-02-21T03:50:55;10.20;99.90
18597;DHT22;9428;50.950;6.912;2024-02-21T03:53:42;10.10;99.90
18597;DHT22;9428;50.950;6.912;2024-02-21T03:56:29;10.20;99.90
18597;DHT22;9428;50.950;6.912;2024-02-21T03:59:17;10.10;99.90
18597;DHT22;9428;50.950;6.912;2024-02-21T04:02:04;10.10;99.90
18597;DHT22;9428;50.950;6.912;2024-02-21T04:04:55;10.00;99.90
18597;DHT22;9428;50.950;6.912;2024-02-21T04:07:43;10.10;99.90
18597;DHT22;9428;50.950;6.912;2024-02-21T04:10:30;10.10;99.90
18597;DHT22;9428;50.950;6.912;2024-02-21T04:13:18;10.10;99.90
18597;DHT22;9428;50.950;6.912;2024-02-21T04:16:05;10.20;99.90
18597;DHT22;9428;50.950;6.912;2024-02-21T04:18:52;10.20;99.90
18597;DHT22;9428;50.950;6.912;2024-02-21T04:21:41;10.20;99.90
18597;DHT22;9428;50.950;6.912;2024-02-21T04:24:28;10.20;99.90
18597;DHT22;9428;50.950;6.912;2024-02-21T04:27:16;10.10;99.90
18597;DHT22;9428;50.950;6.912;2024-02-21T04:30:04;10.20;99.90
18597;DHT22;9428;50.950;6.912;2024-02-21T04:32:52;10.10;99.90
18597;DHT22;9428;50.950;6.912;2024-02-21T04:35:39;10.10;99.90
18597;DHT22;9428;50.950;6.912;2024-02-21T04:38:28;10.10;99.90
18597;DHT22;9428;50.950;6.912;2024-02-21T04:41:16;10.20;99.90
18597;DHT22;9428;50.950;6.912;2024-02-21T04:44:03;10.10;99.90
18597;DHT22;9428;50.950;6.912;2024-02-21T04:46:51;10.10;99.90
18597;DHT22;9428;50.950;6.912;2024-02-21T04:49:38;10.10;99.90
18597;DHT22;9428;50.950;6.912;2024-02-21T04:52:26;10.10;99.90
18597;DHT22;9428;50.950;6.912;2024-02-21T04:55:14;9.40;99.90
18597;DHT22;9428;50.950;6.912;2024-02-21T04:58:02;10.00;99.90
18597;DHT22;9428;50.950;6.912;2024-02-21T05:00:49;10.00;99.90
18597;DHT22;9428;50.950;6.912;2024-02-21T05:03:38;10.00;99.90
18597;DHT22;9428;50.950;6.912;2024-02-21T05:06:25;10.20;99.90
18597;DHT22;9428;50.950;6.912;2024-02-21T05:09:13;10.00;99.90
18597;DHT22;9428;50.950;6.912;2024-02-21T05:12:03;10.00;99.90
18597;DHT22;9428;50.950;6.912;2024-02-21T05:14:50;10.00;99.90
18597;DHT22;9428;50.950;6.912;2024-02-21T05:17:38;10.00;99.90
18597;DHT22;9428;50.950;6.912;2024-02-21T05:20:25;10.10;99.90
18597;DHT22;9428;50.950;6.912;2024-02-21T05:23:15;10.00;99.90
18597;DHT22;9428;50.950;6.912;2024-02-21T05:26:03;10.00;99.90
18597;DHT22;9428;50.950;6.912;2024-02-21T05:28:55;10.10;99.90
18597;DHT22;9428;50.950;6.912;2024-02-21T05:31:57;10.00;99.90
18597;DHT22;9428;50.950;6.912;2024-02-21T05:34:48;10.10;99.90
18597;DHT22;9428;50.950;6.912;2024-02-21T05:37:35;9.90;99.90
18597;DHT22;9428;50.950;6.912;2024-02-21T05:40:23;10.00;99.90
18597;DHT22;9428;50.950;6.912;2024-02-21T05:43:11;10.00;99.90
18597;DHT22;9428;50.950;6.912;2024-02-21T05:46:00;10.00;99.90
18597;DHT22;9428;50.950;6.912;2024-02-21T05:48:47;9.90;99.90
18597;DHT22;9428;50.950;6.912;2024-02-21T05:51:35;10.00;99.90
18597;DHT22;9428;50.950;6.912;2024-02-21T05:54:22;10.00;99.90
18597;DHT22;9428;50.950;6.912;2024-02-21T05:57:10;10.00;99.90
18597;DHT22;9428;50.950;6.912;2024-02-21T05:59:57;10.00;99.90
18597;DHT22;9428;50.950;6.912;2024-02-21T06:02:46;10.00;99.90
18597;DHT22;9428;50.950;6.912;2024-02-21T06:05:37;10.00;99.90
18597;DHT22;9428;50.950;6.912;2024-02-21T06:08:24;10.10;99.90
18597;DHT22;9428;50.950;6.912;2024-02-21T06:11:11;10.00;99.90
18597;DHT22;9428;50.950;6.912;2024-02-21T06:14:01;10.00;99.90
18597;DHT22;9428;50.950;6.912;2024-02-21T06:16:48;10.00;99.90
18597;DHT22;9428;50.950;6.912;2024-02-21T06:19:39;10.00;99.90
18597;DHT22;9428;50.950;6.912;2024-02-21T06:22:27;10.10;99.90
18597;DHT22;9428;50.950;6.912;2024-02-21T06:25:14;10.10;99.90
18597;DHT22;9428;50.950;6.912;2024-02-21T06:28:02;10.10;99.90
18597;DHT22;9428;50.950;6.912;2024-02-21T06:30:50;10.10;99.90
18597;DHT22;9428;50.950;6.912;2024-02-21T06:33:37;10.10;99.90
18597;DHT22;9428;50.950;6.912;2024-02-21T06:36:26;10.10;99.90
18597;DHT22;9428;50.950;6.912;2024-02-21T06:39:13;10.10;99.90
18597;DHT22;9428;50.950;6.912;2024-02-21T06:42:01;10.20;99.90
18597;DHT22;9428;50.950;6.912;2024-02-21T06:44:48;10.10;99.90
18597;DHT22;9428;50.950;6.912;2024-02-21T06:47:35;10.20;99.90
18597;DHT22;9428;50.950;6.912;2024-02-21T06:50:23;10.10;99.90
18597;DHT22;9428;50.950;6.912;2024-02-21T06:53:12;10.10;99.90
18597;DHT22;9428;50.950;6.912;2024-02-21T06:55:59;10.10;99.90
18597;DHT22;9428;50.950;6.912;2024-02-21T06:58:46;9.70;99.90
18597;DHT22;9428;50.950;6.912;2024-02-21T07:01:34;10.10;99.90
18597;DHT22;9428;50.950;6.912;2024-02-21T07:04:21;10.10;99.90
18597;DHT22;9428;50.950;6.912;2024-02-21T07:07:09;10.10;99.90
18597;DHT22;9428;50.950;6.912;2024-02-21T07:09:58;10.00;99.90
18597;DHT22;9428;50.950;6.912;2024-02-21T07:12:46;10.00;99.90
18597;DHT22;9428;50.950;6.912;2024-02-21T07:15:34;10.10;99.90
18597;DHT22;9428;50.950;6.912;2024-02-21T07:18:22;10.10;99.90
18597;DHT22;9428;50.950;6.912;2024-02-21T07:21:11;10.10;99.90
18597;DHT22;9428;50.950;6.912;2024-02-21T07:23:58;10.10;99.90
18597;DHT22;9428;50.950;6.912;2024-02-21T07:26:47;10.10;99.90
18597;DHT22;9428;50.950;6.912;2024-02-21T07:29:34;10.10;99.90
18597;DHT22;9428;50.950;6.912;2024-02-21T07:32:22;10.10;99.90
18597;DHT22;9428;50.950;6.912;2024-02-21T07:35:09;10.10;99.90
18597;DHT22;9428;50.950;6.912;2024-02-21T07:37:58;10.10;99.90
18597;DHT22;9428;50.950;6.912;2024-02-21T07:40:48;10.10;99.90
18597;DHT22;9428;50.950;6.912;2024-02-21T07:43:37;10.00;99.90
18597;DHT22;9428;50.950;6.912;2024-02-21T07:46:24;10.10;99.90
18597;DHT22;9428;50.950;6.912;2024-02-21T07:49:11;10.00;99.90
18597;DHT22;9428;50.950;6.912;2024-02-21T07:52:00;10.00;99.90
18597;DHT22;9428;50.950;6.912;2024-02-21T07:54:49;10.00;99.90
18597;DHT22;9428;50.950;6.912;2024-02-21T07:57:36;10.00;99.90
18597;DHT22;9428;50.950;6.912;2024-02-21T08:00:25;10.00;99.90
18597;DHT22;9428;50.950;6.912;2024-02-21T08:03:12;10.00;99.90
18597;DHT22;9428;50.950;6.912;2024-02-21T08:06:02;10.00;99.90
18597;DHT22;9428;50.950;6.912;2024-02-21T08:08:49;10.10;99.90
18597;DHT22;9428;50.950;6.912;2024-02-21T08:11:36;10.10;99.90
18597;DHT22;9428;50.950;6.912;2024-02-21T08:14:24;10.00;99.90
18597;DHT22;9428;50.950;6.912;2024-02-21T08:17:13;10.10;99.90
18597;DHT22;9428;50.950;6.912;2024-02-21T08:20:00;10.10;99.90
18597;DHT22;9428;50.950;6.912;2024-02-21T08:22:48;10.10;99.90
18597;DHT22;9428;50.950;6.912;2024-02-21T08:25:35;10.10;99.90
18597;DHT22;9428;50.950;6.912;2024-02-21T08:28:22;10.00;99.90
18597;DHT22;9428;50.950;6.912;2024-02-21T08:31:11;10.10;99.90
18597;DHT22;9428;50.950;6.912;2024-02-21T08:34:06;10.10;99.90
18597;DHT22;9428;50.950;6.912;2024-02-21T08:36:53;10.10;99.90
18597;DHT22;9428;50.950;6.912;2024-02-21T08:39:41;10.10;99.90
18597;DHT22;9428;50.950;6.912;2024-02-21T08:42:28;10.20;99.90
18597;DHT22;9428;50.950;6.912;2024-02-21T08:45:15;10.20;99.90
18597;DHT22;9428;50.950;6.912;2024-02-21T08:48:03;10.40;99.90
18597;DHT22;9428;50.950;6.912;2024-02-21T08:50:52;10.40;99.90
18597;DHT22;9428;50.950;6.912;2024-02-21T08:53:40;10.40;99.90
18597;DHT22;9428;50.950;6.912;2024-02-21T08:56:30;10.40;99.90
18597;DHT22;9428;50.950;6.912;2024-02-21T08:59:17;10.40;99.90
18597;DHT22;9428;50.950;6.912;2024-02-21T09:02:05;10.40;99.90
18597;DHT22;9428;50.950;6.912;2024-02-21T09:04:53;10.40;99.90
18597;DHT22;9428;50.950;6.912;2024-02-21T09:07:42;10.40;99.90
18597;DHT22;9428;50.950;6.912;2024-02-21T09:10:30;10.50;99.90
18597;DHT22;9428;50.950;6.912;2024-02-21T09:13:17;10.50;99.90
18597;DHT22;9428;50.950;6.912;2024-02-21T09:16:05;11.00;99.90
18597;DHT22;9428;50.950;6.912;2024-02-21T09:18:52;10.60;99.90
18597;DHT22;9428;50.950;6.912;2024-02-21T09:21:40;10.30;99.90
18597;DHT22;9428;50.950;6.912;2024-02-21T09:24:29;10.70;99.90
18597;DHT22;9428;50.950;6.912;2024-02-21T09:27:16;10.60;99.90
18597;DHT22;9428;50.950;6.912;2024-02-21T09:30:04;10.50;99.90
18597;DHT22;9428;50.950;6.912;2024-02-21T09:32:52;10.60;99.90
18597;DHT22;9428;50.950;6.912;2024-02-21T09:35:39;10.50;99.90
18597;DHT22;9428;50.950;6.912;2024-02-21T09:38:27;10.10;99.90
18597;DHT22;9428;50.950;6.912;2024-02-21T09:41:17;10.70;99.90
18597;DHT22;9428;50.950;6.912;2024-02-21T09:44:05;10.70;99.90
18597;DHT22;9428;50.950;6.912;2024-02-21T09:47:01;10.70;99.90
18597;DHT22;9428;50.950;6.912;2024-02-21T09:49:50;10.70;99.90
18597;DHT22;9428;50.950;6.912;2024-02-21T09:52:38;10.70;99.90
18597;DHT22;9428;50.950;6.912;2024-02-21T09:55:27;10.70;99.90
18597;DHT22;9428;50.950;6.912;2024-02-21T09:58:19;10.70;99.90
18597;DHT22;9428;50.950;6.912;2024-02-21T10:01:07;10.60;99.90
18597;DHT22;9428;50.950;6.912;2024-02-21T10:03:55;10.70;99.90
18597;DHT22;9428;50.950;6.912;2024-02-21T10:06:43;10.70;99.90
18597;DHT22;9428;50.950;6.912;2024-02-21T10:09:31;10.80;99.90
18597;DHT22;9428;50.950;6.912;2024-02-21T10:12:19;10.70;99.90
18597;DHT22;9428;50.950;6.912;2024-02-21T10:15:08;10.90;99.90
18597;DHT22;9428;50.950;6.912;2024-02-21T10:18:00;10.90;99.90
18597;DHT22;9428;50.950;6.912;2024-02-21T10:20:47;11.00;99.90
18597;DHT22;9428;50.950;6.912;2024-02-21T10:23:42;11.00;99.90
18597;DHT22;9428;50.950;6.912;2024-02-21T10:26:29;10.90;99.90
18597;DHT22;9428;50.950;6.912;2024-02-21T10:29:16;10.90;99.90
18597;DHT22;9428;50.950;6.912;2024-02-21T10:32:06;11.00;99.90
18597;DHT22;9428;50.950;6.912;2024-02-21T10:35:01;11.00;99.90
18597;DHT22;9428;50.950;6.912;2024-02-21T10:37:50;10.80;99.90
18597;DHT22;9428;50.950;6.912;2024-02-21T10:40:41;11.10;99.90
18597;DHT22;9428;50.950;6.912;2024-02-21T10:43:30;11.10;99.90
18597;DHT22;9428;50.950;6.912;2024-02-21T10:46:21;11.00;99.90
18597;DHT22;9428;50.950;6.912;2024-02-21T10:49:14;11.10;99.90
18597;DHT22;9428;50.950;6.912;2024-02-21T10:52:09;11.10;99.90
18597;DHT22;9428;50.950;6.912;2024-02-21T10:55:03;11.20;99.90
18597;DHT22;9428;50.950;6.912;2024-02-21T10:57:51;11.30;99.90
18597;DHT22;9428;50.950;6.912;2024-02-21T11:00:39;11.30;99.90
18597;DHT22;9428;50.950;6.912;2024-02-21T11:03:31;11.30;99.90
18597;DHT22;9428;50.950;6.912;2024-02-21T11:06:21;10.50;99.90
18597;DHT22;9428;50.950;6.912;2024-02-21T11:09:10;11.40;99.90
18597;DHT22;9428;50.950;6.912;2024-02-21T11:11:57;11.40;99.90
18597;DHT22;9428;50.950;6.912;2024-02-21T11:14:47;11.40;99.90
18597;DHT22;9428;50.950;6.912;2024-02-21T11:17:34;11.40;99.90
18597;DHT22;9428;50.950;6.912;2024-02-21T11:20:32;11.40;99.90
18597;DHT22;9428;50.950;6.912;2024-02-21T11:23:26;11.50;99.90
18597;DHT22;9428;50.950;6.912;2024-02-21T11:26:19;11.60;99.90
18597;DHT22;9428;50.950;6.912;2024-02-21T11:29:06;11.70;99.90
18597;DHT22;9428;50.950;6.912;2024-02-21T11:31:55;11.60;99.90
18597;DHT22;9428;50.950;6.912;2024-02-21T11:34:53;11.70;99.90
18597;DHT22;9428;50.950;6.912;2024-02-21T11:37:41;11.60;99.90
18597;DHT22;9428;50.950;6.912;2024-02-21T11:40:33;12.20;99.90
18597;DHT22;9428;50.950;6.912;2024-02-21T11:43:21;11.80;99.90
18597;DHT22;9428;50.950;6.912;2024-02-21T11:46:08;11.70;99.90
18597;DHT22;9428;50.950;6.912;2024-02-21T11:48:56;11.50;99.90
18597;DHT22;9428;50.950;6.912;2024-02-21T11:51:46;11.60;99.90
18597;DHT22;9428;50.950;6.912;2024-02-21T11:54:34;11.60;99.90
18597;DHT22;9428;50.950;6.912;2024-02-21T11:57:23;11.80;99.90
18597;DHT22;9428;50.950;6.912;2024-02-21T12:00:13;11.50;99.90
18597;DHT22;9428;50.950;6.912;2024-02-21T12:03:01;11.80;99.90
18597;DHT22;9428;50.950;6.912;2024-02-21T12:05:48;11.80;99.90
18597;DHT22;9428;50.950;6.912;2024-02-21T12:08:43;11.80;99.90
18597;DHT22;9428;50.950;6.912;2024-02-21T12:11:30;11.80;99.90
18597;DHT22;9428;50.950;6.912;2024-02-21T12:14:19;11.80;99.90
18597;DHT22;9428;50.950;6.912;2024-02-21T12:17:08;11.80;99.90
18597;DHT22;9428;50.950;6.912;2024-02-21T12:19:56;11.80;99.90
18597;DHT22;9428;50.950;6.912;2024-02-21T12:22:44;11.80;99.90
18597;DHT22;9428;50.950;6.912;2024-02-21T12:25:31;12.10;99.90
18597;DHT22;9428;50.950;6.912;2024-02-21T12:28:18;11.80;99.90
18597;DHT22;9428;50.950;6.912;2024-02-21T12:31:09;11.80;99.90
18597;DHT22;9428;50.950;6.912;2024-02-21T12:33:56;11.80;99.90
18597;DHT22;9428;50.950;6.912;2024-02-21T12:36:44;11.80;99.90
18597;DHT22;9428;50.950;6.912;2024-02-21T12:39:33;11.80;99.90
18597;DHT22;9428;50.950;6.912;2024-02-21T12:42:20;11.80;99.90
18597;DHT22;9428;50.950;6.912;2024-02-21T12:45:10;11.90;99.90
18597;DHT22;9428;50.950;6.912;2024-02-21T12:47:58;11.90;99.90
18597;DHT22;9428;50.950;6.912;2024-02-21T12:50:48;11.90;99.90
18597;DHT22;9428;50.950;6.912;2024-02-21T12:53:37;11.90;99.90
18597;DHT22;9428;50.950;6.912;2024-02-21T12:56:25;11.80;99.90
18597;DHT22;9428;50.950;6.912;2024-02-21T12:59:13;11.90;99.90
18597;DHT22;9428;50.950;6.912;2024-02-21T13:02:00;11.90;99.90
18597;DHT22;9428;50.950;6.912;2024-02-21T13:04:49;11.90;99.90
18597;DHT22;9428;50.950;6.912;2024-02-21T13:07:37;12.00;99.90
18597;DHT22;9428;50.950;6.912;2024-02-21T13:10:24;12.10;99.90
18597;DHT22;9428;50.950;6.912;2024-02-21T13:13:11;12.10;99.90
18597;DHT22;9428;50.950;6.912;2024-02-21T13:16:01;12.20;99.90
18597;DHT22;9428;50.950;6.912;2024-02-21T13:18:49;12.20;99.90
18597;DHT22;9428;50.950;6.912;2024-02-21T13:21:37;12.10;99.90
18597;DHT22;9428;50.950;6.912;2024-02-21T13:24:25;12.10;99.90
18597;DHT22;9428;50.950;6.912;2024-02-21T13:27:12;12.20;99.90
18597;DHT22;9428;50.950;6.912;2024-02-21T13:30:00;12.10;99.90
18597;DHT22;9428;50.950;6.912;2024-02-21T13:32:51;12.20;99.90
18597;DHT22;9428;50.950;6.912;2024-02-21T13:35:40;12.20;99.90
18597;DHT22;9428;50.950;6.912;2024-02-21T13:38:29;12.70;99.90
18597;DHT22;9428;50.950;6.912;2024-02-21T13:41:16;12.10;99.90
18597;DHT22;9428;50.950;6.912;2024-02-21T13:44:04;12.00;99.90
18597;DHT22;9428;50.950;6.912;2024-02-21T13:46:51;12.10;99.90
18597;DHT22;9428;50.950;6.912;2024-02-21T13:49:38;12.10;99.90
18597;DHT22;9428;50.950;6.912;2024-02-21T13:52:26;12.10;99.90
18597;DHT22;9428;50.950;6.912;2024-02-21T13:55:15;12.10;99.90
18597;DHT22;9428;50.950;6.912;2024-02-21T13:58:02;12.10;99.90
18597;DHT22;9428;50.950;6.912;2024-02-21T14:00:50;12.10;99.90
18597;DHT22;9428;50.950;6.912;2024-02-21T14:03:37;12.10;99.90
18597;DHT22;9428;50.950;6.912;2024-02-21T14:06:24;12.10;99.90
18597;DHT22;9428;50.950;6.912;2024-02-21T14:09:12;12.10;99.90
18597;DHT22;9428;50.950;6.912;2024-02-21T14:12:01;12.10;99.90
18597;DHT22;9428;50.950;6.912;2024-02-21T14:14:48;12.10;99.90
18597;DHT22;9428;50.950;6.912;2024-02-21T14:17:36;12.10;99.90
18597;DHT22;9428;50.950;6.912;2024-02-21T14:20:25;12.10;99.90
18597;DHT22;9428;50.950;6.912;2024-02-21T14:23:12;12.10;99.90
18597;DHT22;9428;50.950;6.912;2024-02-21T14:25:59;12.10;99.90
18597;DHT22;9428;50.950;6.912;2024-02-21T14:28:48;12.10;99.90
18597;DHT22;9428;50.950;6.912;2024-02-21T14:31:35;12.10;99.90
18597;DHT22;9428;50.950;6.912;2024-02-21T14:34:22;12.10;99.90
18597;DHT22;9428;50.950;6.912;2024-02-21T14:37:10;12.10;99.90
18597;DHT22;9428;50.950;6.912;2024-02-21T14:39:58;12.00;99.90
18597;DHT22;9428;50.950;6.912;2024-02-21T14:42:46;12.00;99.90
18597;DHT22;9428;50.950;6.912;2024-02-21T14:45:35;12.70;99.90
18597;DHT22;9428;50.950;6.912;2024-02-21T14:48:22;12.00;99.90
18597;DHT22;9428;50.950;6.912;2024-02-21T14:51:11;12.20;99.90
18597;DHT22;9428;50.950;6.912;2024-02-21T14:53:59;12.00;99.90
18597;DHT22;9428;50.950;6.912;2024-02-21T14:56:46;12.00;99.90
18597;DHT22;9428;50.950;6.912;2024-02-21T14:59:36;12.00;99.90
18597;DHT22;9428;50.950;6.912;2024-02-21T15:02:25;12.00;99.90
18597;DHT22;9428;50.950;6.912;2024-02-21T15:05:13;12.00;99.90
18597;DHT22;9428;50.950;6.912;2024-02-21T15:08:01;12.10;99.90
18597;DHT22;9428;50.950;6.912;2024-02-21T15:10:48;11.90;99.90
18597;DHT22;9428;50.950;6.912;2024-02-21T15:13:36;12.00;99.90
18597;DHT22;9428;50.950;6.912;2024-02-21T15:16:24;12.00;99.90
18597;DHT22;9428;50.950;6.912;2024-02-21T15:19:13;12.00;99.90
18597;DHT22;9428;50.950;6.912;2024-02-21T15:22:01;12.10;99.90
18597;DHT22;9428;50.950;6.912;2024-02-21T15:24:48;12.10;99.90
18597;DHT22;9428;50.950;6.912;2024-02-21T15:27:36;12.10;99.90
18597;DHT22;9428;50.950;6.912;2024-02-21T15:30:25;12.10;99.90
18597;DHT22;9428;50.950;6.912;2024-02-21T15:33:12;12.10;99.90
18597;DHT22;9428;50.950;6.912;2024-02-21T15:36:01;12.00;99.90
18597;DHT22;9428;50.950;6.912;2024-02-21T15:38:49;12.00;99.90
18597;DHT22;9428;50.950;6.912;2024-02-21T15:41:38;12.00;99.90
18597;DHT22;9428;50.950;6.912;2024-02-21T15:44:25;12.10;99.90
18597;DHT22;9428;50.950;6.912;2024-02-21T15:47:12;12.00;99.90
18597;DHT22;9428;50.950;6.912;2024-02-21T15:50:02;11.80;99.90
18597;DHT22;9428;50.950;6.912;2024-02-21T15:52:51;12.00;99.90
18597;DHT22;9428;50.950;6.912;2024-02-21T15:55:38;11.90;99.90
18597;DHT22;9428;50.950;6.912;2024-02-21T15:58:25;11.90;99.90
18597;DHT22;9428;50.950;6.912;2024-02-21T16:01:13;11.90;99.90
18597;DHT22;9428;50.950;6.912;2024-02-21T16:04:01;11.90;99.90
18597;DHT22;9428;50.950;6.912;2024-02-21T16:06:48;11.90;99.90
18597;DHT22;9428;50.950;6.912;2024-02-21T16:09:38;11.80;99.90
18597;DHT22;9428;50.950;6.912;2024-02-21T16:12:29;11.80;99.90
18597;DHT22;9428;50.950;6.912;2024-02-21T16:15:17;11.70;99.90
18597;DHT22;9428;50.950;6.912;2024-02-21T16:18:04;11.80;99.90
18597;DHT22;9428;50.950;6.912;2024-02-21T16:20:53;11.70;99.90
18597;DHT22;9428;50.950;6.912;2024-02-21T16:23:44;11.70;99.90
18597;DHT22;9428;50.950;6.912;2024-02-21T16:26:35;11.70;99.90
18597;DHT22;9428;50.950;6.912;2024-02-21T16:29:23;11.70;99.90
18597;DHT22;9428;50.950;6.912;2024-02-21T16:32:11;11.70;99.90
18597;DHT22;9428;50.950;6.912;2024-02-21T16:34:58;11.60;99.90
18597;DHT22;9428;50.950;6.912;2024-02-21T16:37:46;11.60;99.90
18597;DHT22;9428;50.950;6.912;2024-02-21T16:40:35;11.60;99.90
18597;DHT22;9428;50.950;6.912;2024-02-21T16:43:24;11.60;99.90
18597;DHT22;9428;50.950;6.912;2024-02-21T16:46:12;11.60;99.90
18597;DHT22;9428;50.950;6.912;2024-02-21T16:49:02;11.50;99.90
18597;DHT22;9428;50.950;6.912;2024-02-21T16:51:51;11.50;99.90
18597;DHT22;9428;50.950;6.912;2024-02-21T16:54:39;11.50;99.90
18597;DHT22;9428;50.950;6.912;2024-02-21T16:57:27;11.50;99.90
18597;DHT22;9428;50.950;6.912;2024-02-21T17:00:16;11.70;99.90
18597;DHT22;9428;50.950;6.912;2024-02-21T17:03:06;11.40;99.90
18597;DHT22;9428;50.950;6.912;2024-02-21T17:05:53;11.40;99.90
18597;DHT22;9428;50.950;6.912;2024-02-21T17:08:42;11.40;99.90
18597;DHT22;9428;50.950;6.912;2024-02-21T17:11:29;11.40;99.90
18597;DHT22;9428;50.950;6.912;2024-02-21T17:14:16;11.30;99.90
18597;DHT22;9428;50.950;6.912;2024-02-21T17:17:05;11.30;99.90
18597;DHT22;9428;50.950;6.912;2024-02-21T17:19:53;11.30;99.90
18597;DHT22;9428;50.950;6.912;2024-02-21T17:22:41;12.00;99.90
18597;DHT22;9428;50.950;6.912;2024-02-21T17:25:28;11.20;99.90
18597;DHT22;9428;50.950;6.912;2024-02-21T17:28:16;11.20;99.90
18597;DHT22;9428;50.950;6.912;2024-02-21T17:31:03;11.20;99.90
18597;DHT22;9428;50.950;6.912;2024-02-21T17:33:52;11.10;99.90
18597;DHT22;9428;50.950;6.912;2024-02-21T17:36:40;11.10;99.90
18597;DHT22;9428;50.950;6.912;2024-02-21T17:39:27;11.20;99.90
18597;DHT22;9428;50.950;6.912;2024-02-21T17:42:15;11.10;99.90
18597;DHT22;9428;50.950;6.912;2024-02-21T17:45:02;11.00;99.90
18597;DHT22;9428;50.950;6.912;2024-02-21T17:47:50;10.90;99.90
18597;DHT22;9428;50.950;6.912;2024-02-21T17:50:40;10.80;99.90
18597;DHT22;9428;50.950;6.912;2024-02-21T17:53:29;10.80;99.90
18597;DHT22;9428;50.950;6.912;2024-02-21T17:56:16;10.70;99.90
18597;DHT22;9428;50.950;6.912;2024-02-21T17:59:05;10.70;99.90
18597;DHT22;9428;50.950;6.912;2024-02-21T18:01:53;10.60;99.90